createdAt,value
2018-08-04T00:01:38.222Z,24.22
2018-08-04T00:03:50.443Z,24.20
2018-08-04T00:06:02.698Z,24.20
2018-08-04T00:08:15.009Z,24.21
2018-08-04T00:10:27.243Z,24.17
2018-08-04T00:12:40.143Z,24.09
2018-08-04T00:14:52.348Z,23.99
2018-08-04T00:17:04.767Z,23.88
2018-08-04T00:19:17.023Z,23.80
2018-08-04T00:21:29.290Z,23.78
2018-08-04T00:23:41.508Z,23.80
2018-08-04T00:25:53.794Z,23.80
2018-08-04T00:28:06.039Z,23.80
2018-08-04T00:30:18.310Z,23.83
2018-08-04T00:32:30.636Z,23.83
2018-08-04T00:34:42.830Z,23.84
2018-08-04T00:36:55.078Z,23.85
2018-08-04T00:39:07.331Z,23.84
2018-08-04T00:41:19.622Z,23.83
2018-08-04T00:43:31.831Z,23.83
2018-08-04T00:45:44.079Z,23.83
2018-08-04T00:47:56.336Z,23.85
2018-08-04T00:50:09.609Z,23.87
2018-08-04T00:52:21.842Z,23.88
2018-08-04T00:54:34.091Z,23.89
2018-08-04T00:56:46.332Z,23.86
2018-08-04T00:58:58.590Z,23.82
2018-08-04T01:01:10.797Z,23.78
2018-08-04T01:03:23.044Z,23.71
2018-08-04T01:05:35.308Z,23.62
2018-08-04T01:07:47.546Z,23.60
2018-08-04T01:10:02.770Z,23.59
2018-08-04T01:12:15.074Z,23.56
2018-08-04T01:14:27.310Z,23.48
2018-08-04T01:16:39.560Z,23.39
2018-08-04T01:18:51.767Z,23.33
2018-08-04T01:21:03.999Z,23.29
2018-08-04T01:23:16.225Z,23.20
2018-08-04T01:25:28.459Z,23.12
2018-08-04T01:27:40.696Z,23.07
2018-08-04T01:29:52.948Z,23.08
2018-08-04T01:32:05.158Z,23.11
2018-08-04T01:34:17.364Z,23.12
2018-08-04T01:36:29.582Z,23.11
2018-08-04T01:38:41.800Z,23.11
2018-08-04T01:40:54.046Z,23.05
2018-08-04T01:43:06.274Z,22.97
2018-08-04T01:45:18.523Z,22.94
2018-08-04T01:47:30.759Z,22.91
2018-08-04T01:49:43.007Z,22.92
2018-08-04T01:51:55.243Z,22.93
2018-08-04T01:54:07.473Z,22.95
2018-08-04T01:56:19.658Z,22.99
2018-08-04T01:58:31.882Z,22.99
2018-08-04T02:00:44.139Z,22.97
2018-08-04T02:02:56.392Z,22.90
2018-08-04T02:05:08.685Z,22.81
2018-08-04T02:07:20.974Z,22.68
2018-08-04T02:09:33.178Z,22.61
2018-08-04T02:11:45.366Z,22.58
2018-08-04T02:13:57.609Z,22.64
2018-08-04T02:16:09.968Z,22.66
2018-08-04T02:18:22.191Z,22.68
2018-08-04T02:20:34.411Z,22.70
2018-08-04T02:22:46.614Z,22.71
2018-08-04T02:24:58.903Z,22.75
2018-08-04T02:27:11.064Z,22.78
2018-08-04T02:29:23.283Z,22.75
2018-08-04T02:31:35.479Z,22.71
2018-08-04T02:33:47.723Z,22.71
2018-08-04T02:35:59.915Z,22.63
2018-08-04T02:38:12.136Z,22.64
2018-08-04T02:40:24.387Z,22.60
2018-08-04T02:42:36.584Z,22.51
2018-08-04T02:44:48.810Z,22.50
2018-08-04T02:47:01.047Z,22.49
2018-08-04T02:49:13.332Z,22.46
2018-08-04T02:51:25.506Z,22.43
2018-08-04T02:53:37.704Z,22.38
2018-08-04T02:55:49.927Z,22.29
2018-08-04T02:58:02.139Z,22.20
2018-08-04T03:00:14.410Z,22.18
2018-08-04T03:02:26.583Z,22.19
2018-08-04T03:04:38.874Z,22.22
2018-08-04T03:06:51.070Z,22.25
2018-08-04T03:09:05.618Z,22.23
2018-08-04T03:11:17.830Z,22.19
2018-08-04T03:13:30.047Z,22.18
2018-08-04T03:15:42.278Z,22.15
2018-08-04T03:17:54.471Z,22.12
2018-08-04T03:20:07.091Z,22.13
2018-08-04T03:22:19.329Z,22.11
2018-08-04T03:24:31.543Z,22.09
2018-08-04T03:26:43.752Z,22.07
2018-08-04T03:28:56.282Z,22.06
2018-08-04T03:31:08.539Z,22.09
2018-08-04T03:33:20.734Z,22.09
2018-08-04T03:35:33.003Z,22.08
2018-08-04T03:37:45.188Z,22.05
2018-08-04T03:39:57.419Z,22.03
2018-08-04T03:42:09.654Z,21.99
2018-08-04T03:44:21.858Z,21.99
2018-08-04T03:46:34.170Z,21.99
2018-08-04T03:48:46.349Z,21.98
2018-08-04T03:50:58.597Z,21.96
2018-08-04T03:53:10.838Z,21.91
2018-08-04T03:55:23.086Z,21.87
2018-08-04T03:57:35.303Z,21.89
2018-08-04T03:59:47.613Z,21.86
2018-08-04T04:01:59.787Z,21.76
2018-08-04T04:04:12.031Z,21.68
2018-08-04T04:06:24.267Z,21.60
2018-08-04T04:08:36.489Z,21.50
2018-08-04T04:10:48.695Z,21.46
2018-08-04T04:13:00.973Z,21.48
2018-08-04T04:15:13.181Z,21.54
2018-08-04T04:17:25.427Z,21.56
2018-08-04T04:19:37.605Z,21.54
2018-08-04T04:21:49.831Z,21.50
2018-08-04T04:24:02.031Z,21.50
2018-08-04T04:26:14.204Z,21.50
2018-08-04T04:28:26.426Z,21.54
2018-08-04T04:30:38.612Z,21.62
2018-08-04T04:32:50.839Z,21.68
2018-08-04T04:35:03.045Z,21.74
2018-08-04T04:37:15.278Z,21.83
2018-08-04T04:39:27.482Z,21.90
2018-08-04T04:41:40.375Z,21.90
2018-08-04T04:43:52.810Z,21.90
2018-08-04T04:46:05.041Z,21.88
2018-08-04T04:48:17.265Z,21.88
2018-08-04T04:50:29.523Z,21.93
2018-08-04T04:52:41.800Z,22.05
2018-08-04T04:54:54.018Z,22.14
2018-08-04T04:57:06.238Z,22.22
2018-08-04T04:59:18.498Z,22.30
2018-08-04T05:01:30.759Z,22.35
2018-08-04T05:03:43.016Z,22.39
2018-08-04T05:05:55.266Z,22.50
2018-08-04T05:08:07.455Z,22.62
2018-08-04T05:10:19.678Z,22.74
2018-08-04T05:12:31.871Z,22.80
2018-08-04T05:14:44.116Z,22.88
2018-08-04T05:16:56.360Z,22.96
2018-08-04T05:19:08.693Z,23.03
2018-08-04T05:21:20.883Z,23.08
2018-08-04T05:23:33.051Z,23.12
2018-08-04T05:25:45.254Z,23.18
2018-08-04T05:27:57.466Z,23.23
2018-08-04T05:30:09.727Z,23.32
2018-08-04T05:32:21.920Z,23.42
2018-08-04T05:34:34.144Z,23.51
2018-08-04T05:36:46.391Z,23.65
2018-08-04T05:38:58.594Z,23.73
2018-08-04T05:41:10.800Z,23.86
2018-08-04T05:43:23.091Z,23.98
2018-08-04T05:45:35.220Z,24.11
2018-08-04T05:47:47.444Z,24.26
2018-08-04T05:49:59.650Z,24.35
2018-08-04T05:52:11.910Z,24.43
2018-08-04T05:54:24.194Z,24.49
2018-08-04T05:56:36.407Z,24.56
2018-08-04T05:58:48.600Z,24.58
2018-08-04T06:01:00.816Z,24.64
2018-08-04T06:03:13.116Z,24.74
2018-08-04T06:05:25.302Z,24.81
2018-08-04T06:07:37.603Z,24.90
2018-08-04T06:09:49.811Z,24.97
2018-08-04T06:12:02.022Z,25.02
2018-08-04T06:14:14.256Z,25.09
2018-08-04T06:16:26.499Z,25.15
2018-08-04T06:18:38.706Z,25.19
2018-08-04T06:20:51.030Z,25.24
2018-08-04T06:23:03.202Z,25.30
2018-08-04T06:25:15.447Z,25.36
2018-08-04T06:27:27.669Z,25.41
2018-08-04T06:29:39.862Z,25.44
2018-08-04T06:31:52.100Z,25.44
2018-08-04T06:34:04.832Z,25.38
2018-08-04T06:36:17.042Z,25.35
2018-08-04T06:38:29.243Z,25.43
2018-08-04T06:40:41.476Z,25.56
2018-08-04T06:42:53.710Z,25.73
2018-08-04T06:45:06.012Z,25.93
2018-08-04T06:47:18.213Z,26.09
2018-08-04T06:49:30.552Z,26.22
2018-08-04T06:51:42.762Z,26.35
2018-08-04T06:53:55.063Z,26.54
2018-08-04T06:56:07.342Z,26.71
2018-08-04T06:58:19.592Z,26.82
2018-08-04T07:00:31.839Z,26.95
2018-08-04T07:02:44.060Z,27.14
2018-08-04T07:04:56.296Z,27.36
2018-08-04T07:07:09.215Z,27.50
2018-08-04T07:09:21.431Z,27.71
2018-08-04T07:11:33.668Z,27.84
2018-08-04T07:13:45.986Z,28.00
2018-08-04T07:15:58.225Z,28.16
2018-08-04T07:18:10.438Z,28.37
2018-08-04T07:20:22.722Z,28.49
2018-08-04T07:22:34.999Z,28.64
2018-08-04T07:24:47.217Z,28.82
2018-08-04T07:26:59.438Z,28.92
2018-08-04T07:29:11.742Z,29.09
2018-08-04T07:40:43.303Z,29.26
2018-08-04T07:42:55.528Z,29.59
2018-08-04T07:45:07.829Z,29.75
2018-08-04T07:47:20.109Z,29.90
2018-08-04T07:49:32.330Z,30.11
2018-08-04T07:51:45.487Z,30.30
2018-08-04T07:53:57.779Z,30.46
2018-08-04T07:56:10.064Z,30.57
2018-08-04T07:58:22.317Z,30.63
2018-08-04T08:00:34.538Z,30.73
2018-08-04T08:02:46.836Z,30.84
2018-08-04T08:04:59.125Z,30.91
2018-08-04T08:07:11.365Z,31.01
2018-08-04T08:09:23.635Z,31.14
2018-08-04T08:11:35.975Z,31.22
2018-08-04T08:13:48.207Z,31.33
2018-08-04T08:16:00.439Z,31.30
2018-08-04T08:18:12.692Z,31.22
2018-08-04T08:20:24.970Z,31.33
2018-08-04T08:22:40.663Z,31.42
2018-08-04T08:24:52.997Z,31.56
2018-08-04T08:27:05.310Z,31.64
2018-08-04T08:29:17.543Z,31.79
2018-08-04T08:31:29.846Z,31.95
2018-08-04T08:33:44.374Z,32.04
2018-08-04T08:35:56.586Z,32.03
2018-08-04T08:38:08.860Z,32.14
2018-08-04T08:40:21.203Z,32.16
2018-08-04T08:42:33.410Z,32.21
2018-08-04T08:44:45.725Z,32.28
2018-08-04T08:46:57.947Z,32.38
2018-08-04T08:49:10.199Z,32.47
2018-08-04T08:51:22.447Z,32.59
2018-08-04T08:53:34.777Z,32.61
2018-08-04T08:55:46.974Z,32.70
2018-08-04T08:57:59.221Z,32.83
2018-08-04T09:00:11.527Z,32.91
2018-08-04T09:02:23.807Z,33.05
2018-08-04T09:04:36.107Z,33.04
2018-08-04T09:06:48.398Z,32.96
2018-08-04T09:09:00.668Z,32.94
2018-08-04T09:11:12.903Z,33.01
2018-08-04T09:13:25.167Z,33.18
2018-08-04T09:15:37.481Z,33.21
2018-08-04T09:17:49.758Z,33.29
2018-08-04T09:20:02.064Z,33.29
2018-08-04T09:22:14.306Z,33.38
2018-08-04T09:24:26.531Z,33.50
2018-08-04T09:26:38.742Z,33.59
2018-08-04T09:28:51.040Z,33.66
2018-08-04T09:31:03.332Z,33.73
2018-08-04T09:33:15.626Z,33.86
2018-08-04T09:35:27.897Z,33.91
2018-08-04T09:37:40.162Z,33.80
2018-08-04T09:39:52.393Z,33.87
2018-08-04T09:42:04.701Z,33.94
2018-08-04T09:44:16.920Z,34.05
2018-08-04T09:46:29.166Z,34.16
2018-08-04T09:48:41.365Z,34.24
2018-08-04T09:50:53.670Z,34.41
2018-08-04T09:53:05.890Z,34.50
2018-08-04T09:55:18.159Z,34.52
2018-08-04T09:57:30.351Z,34.54
2018-08-04T09:59:42.669Z,34.57
2018-08-04T10:02:00.711Z,34.60
2018-08-04T10:04:12.961Z,34.55
2018-08-04T10:06:25.244Z,34.62
2018-08-04T10:08:37.495Z,34.70
2018-08-04T10:10:49.801Z,34.86
2018-08-04T10:13:02.131Z,34.94
2018-08-04T10:15:15.351Z,34.93
2018-08-04T10:17:27.669Z,34.91
2018-08-04T10:19:40.576Z,35.02
2018-08-04T10:21:52.875Z,34.98
2018-08-04T10:24:05.306Z,35.05
2018-08-04T10:26:17.592Z,35.13
2018-08-04T10:28:29.846Z,35.13
2018-08-04T10:30:42.059Z,35.22
2018-08-04T10:32:54.410Z,35.27
2018-08-04T10:35:07.510Z,35.34
2018-08-04T10:37:19.809Z,35.43
2018-08-04T10:39:32.143Z,35.54
2018-08-04T10:41:44.323Z,35.56
2018-08-04T10:43:56.552Z,35.57
2018-08-04T10:46:08.864Z,35.59
2018-08-04T10:48:21.208Z,35.63
2018-08-04T10:50:33.462Z,35.64
2018-08-04T10:52:45.807Z,35.75
2018-08-04T10:54:58.081Z,35.79
2018-08-04T10:57:10.379Z,35.86
2018-08-04T10:59:22.676Z,35.92
2018-08-04T11:01:35.018Z,35.86
2018-08-04T11:03:47.451Z,35.88
2018-08-04T11:05:59.702Z,35.95
2018-08-04T11:08:11.956Z,35.97
2018-08-04T11:10:24.177Z,35.96
2018-08-04T11:12:36.451Z,35.88
2018-08-04T11:14:49.975Z,35.93
2018-08-04T11:17:02.239Z,35.98
2018-08-04T11:19:14.707Z,36.02
2018-08-04T11:21:26.975Z,36.06
2018-08-04T11:23:39.203Z,36.18
2018-08-04T11:25:51.447Z,36.23
2018-08-04T11:28:05.472Z,36.20
2018-08-04T11:30:17.738Z,36.24
2018-08-04T11:32:29.977Z,36.29
2018-08-04T11:34:42.211Z,36.17
2018-08-04T11:36:54.463Z,35.84
2018-08-04T11:39:08.328Z,35.61
2018-08-04T11:41:20.619Z,35.70
2018-08-04T11:43:32.891Z,35.48
2018-08-04T11:45:46.745Z,35.31
2018-08-04T11:47:59.042Z,35.09
2018-08-04T11:50:11.702Z,35.12
2018-08-04T11:52:23.958Z,35.18
2018-08-04T11:54:36.376Z,35.24
2018-08-04T11:56:48.641Z,35.31
2018-08-04T11:59:00.912Z,35.37
2018-08-04T12:01:13.240Z,35.55
2018-08-04T12:03:25.519Z,35.62
2018-08-04T12:05:38.700Z,35.66
2018-08-04T12:07:51.028Z,35.64
2018-08-04T12:10:03.468Z,35.67
2018-08-04T12:12:15.766Z,35.72
2018-08-04T12:14:28.009Z,35.79
2018-08-04T12:16:40.295Z,35.87
2018-08-04T12:18:52.702Z,35.89
2018-08-04T12:21:04.956Z,35.96
2018-08-04T12:23:17.263Z,36.00
2018-08-04T12:25:29.599Z,35.95
2018-08-04T12:27:41.846Z,35.87
2018-08-04T12:29:54.123Z,35.77
2018-08-04T12:32:06.589Z,35.84
2018-08-04T12:34:18.907Z,35.84
2018-08-04T12:36:31.175Z,35.72
2018-08-04T12:38:43.440Z,35.59
2018-08-04T12:40:55.700Z,35.64
2018-08-04T12:43:07.943Z,35.57
2018-08-04T12:45:21.389Z,35.63
2018-08-04T12:47:33.710Z,35.66
2018-08-04T12:49:46.039Z,35.70
2018-08-04T12:51:58.297Z,35.69
2018-08-04T12:54:11.089Z,35.76
2018-08-04T12:56:23.380Z,35.84
2018-08-04T12:58:35.761Z,35.90
2018-08-04T13:00:48.144Z,35.93
2018-08-04T13:03:00.387Z,35.94
2018-08-04T13:05:12.632Z,35.97
2018-08-04T13:07:24.873Z,35.96
2018-08-04T13:09:37.121Z,35.96
2018-08-04T13:11:49.389Z,35.92
2018-08-04T13:14:01.734Z,35.90
2018-08-04T13:16:13.987Z,35.94
2018-08-04T13:18:26.243Z,35.96
2018-08-04T13:20:38.699Z,35.94
2018-08-04T13:22:50.945Z,35.90
2018-08-04T13:25:03.773Z,35.91
2018-08-04T13:27:16.096Z,35.86
2018-08-04T13:29:28.388Z,35.85
2018-08-04T13:31:40.676Z,35.81
2018-08-04T13:33:52.910Z,35.73
2018-08-04T13:36:05.169Z,35.74
2018-08-04T13:38:17.448Z,35.69
2018-08-04T13:40:29.730Z,35.72
2018-08-04T13:42:42.047Z,35.71
2018-08-04T13:44:54.304Z,35.73
2018-08-04T13:47:07.304Z,35.77
2018-08-04T13:49:19.558Z,35.76
2018-08-04T13:51:31.954Z,35.74
2018-08-04T13:53:44.206Z,35.69
2018-08-04T13:55:57.036Z,35.72
2018-08-04T13:58:09.320Z,35.72
2018-08-04T14:00:21.591Z,35.75
2018-08-04T14:02:33.999Z,35.81
2018-08-04T14:04:46.217Z,35.81
2018-08-04T14:06:58.604Z,35.80
2018-08-04T14:09:11.403Z,35.78
2018-08-04T14:11:24.244Z,35.78
2018-08-04T14:13:37.092Z,35.74
2018-08-04T14:15:49.285Z,35.68
2018-08-04T14:18:01.540Z,35.65
2018-08-04T14:20:13.802Z,35.59
2018-08-04T14:22:26.624Z,35.59
2018-08-04T14:24:38.977Z,35.52
2018-08-04T14:26:51.228Z,35.48
2018-08-04T14:29:03.592Z,35.48
2018-08-04T14:31:15.839Z,35.45
2018-08-04T14:33:28.095Z,35.45
2018-08-04T14:35:40.296Z,35.45
2018-08-04T14:37:52.542Z,35.45
2018-08-04T14:40:04.832Z,35.43
2018-08-04T14:42:17.051Z,35.41
2018-08-04T14:44:30.596Z,35.40
2018-08-04T14:46:42.823Z,35.27
2018-08-04T14:48:56.014Z,35.23
2018-08-04T14:51:08.311Z,35.26
2018-08-04T14:53:20.709Z,35.21
2018-08-04T14:55:32.951Z,35.21
2018-08-04T14:57:45.231Z,35.25
2018-08-04T15:03:23.681Z,35.12
2018-08-04T15:05:35.999Z,35.13
2018-08-04T15:07:48.232Z,35.08
2018-08-04T15:10:00.535Z,35.05
2018-08-04T15:12:12.894Z,35.07
2018-08-04T15:14:25.163Z,35.07
2018-08-04T15:16:40.454Z,35.06
2018-08-04T15:18:58.931Z,34.99
2018-08-04T15:21:24.319Z,34.91
2018-08-04T15:23:39.230Z,34.84
2018-08-04T15:25:55.335Z,34.84
2018-08-04T15:28:22.313Z,34.77
2018-08-04T15:30:36.207Z,34.65
2018-08-04T15:32:49.688Z,34.59
2018-08-04T15:35:02.054Z,34.59
2018-08-04T15:37:14.540Z,34.59
2018-08-04T15:39:26.808Z,34.58
2018-08-04T15:41:39.135Z,34.57
2018-08-04T15:43:51.311Z,34.57
2018-08-04T15:46:03.598Z,34.59
2018-08-04T15:48:16.775Z,34.60
2018-08-04T15:50:29.058Z,34.54
2018-08-04T15:52:41.327Z,34.57
2018-08-04T15:54:53.581Z,34.53
2018-08-04T15:57:05.999Z,34.55
2018-08-04T15:59:18.294Z,34.55
2018-08-04T16:01:30.608Z,34.61
2018-08-04T16:03:42.926Z,34.58
2018-08-04T16:05:55.106Z,34.57
2018-08-04T16:08:07.361Z,34.54
2018-08-04T16:10:19.654Z,34.50
2018-08-04T16:12:31.891Z,34.44
2018-08-04T16:14:44.164Z,34.39
2018-08-04T16:16:56.430Z,34.33
2018-08-04T16:19:09.040Z,34.31
2018-08-04T16:21:21.238Z,34.29
2018-08-04T16:23:33.529Z,34.23
2018-08-04T16:25:45.773Z,34.23
2018-08-04T16:27:58.058Z,34.25
2018-08-04T16:30:10.728Z,34.19
2018-08-04T16:32:22.938Z,34.11
2018-08-04T16:34:35.222Z,34.06
2018-08-04T16:36:47.451Z,34.04
2018-08-04T16:38:59.675Z,34.06
2018-08-04T16:41:11.935Z,34.03
2018-08-04T16:43:24.140Z,34.03
2018-08-04T16:45:36.374Z,34.00
2018-08-04T16:47:48.623Z,33.94
2018-08-04T16:50:00.840Z,33.98
2018-08-04T16:52:13.084Z,34.02
2018-08-04T16:54:25.328Z,33.99
2018-08-04T16:56:37.566Z,33.96
2018-08-04T16:58:49.780Z,33.93
2018-08-04T17:01:02.026Z,33.87
2018-08-04T17:03:14.300Z,33.88
2018-08-04T17:05:26.517Z,33.85
2018-08-04T17:07:38.781Z,33.83
2018-08-04T17:09:51.000Z,33.79
2018-08-04T17:12:03.292Z,33.79
2018-08-04T17:14:15.525Z,33.73
2018-08-04T17:16:27.772Z,33.71
2018-08-04T17:18:39.994Z,33.72
2018-08-04T17:20:52.210Z,33.63
2018-08-04T17:23:04.470Z,33.60
2018-08-04T17:25:16.678Z,33.59
2018-08-04T17:27:28.926Z,33.56
2018-08-04T17:29:41.147Z,33.55
2018-08-04T17:31:53.401Z,33.48
2018-08-04T17:34:05.577Z,33.41
2018-08-04T17:36:17.886Z,33.30
2018-08-04T17:38:30.119Z,33.24
2018-08-04T17:40:42.303Z,33.17
2018-08-04T17:42:54.581Z,33.13
2018-08-04T17:45:06.819Z,33.08
2018-08-04T17:47:19.012Z,33.01
2018-08-04T17:49:31.230Z,32.95
2018-08-04T17:51:43.458Z,32.90
2018-08-04T17:53:56.799Z,32.89
2018-08-04T17:56:09.012Z,32.86
2018-08-04T17:58:21.230Z,32.84
2018-08-04T18:00:33.498Z,32.84
2018-08-04T18:02:45.746Z,32.79
2018-08-04T18:04:57.964Z,32.74
2018-08-04T18:07:10.166Z,32.71
2018-08-04T18:09:22.399Z,32.63
2018-08-04T18:11:34.618Z,32.59
2018-08-04T18:13:46.837Z,32.52
2018-08-04T18:15:59.066Z,32.43
2018-08-04T18:18:11.266Z,32.38
2018-08-04T18:20:23.545Z,32.36
2018-08-04T18:22:35.814Z,32.33
2018-08-04T18:24:48.115Z,32.29
2018-08-04T18:27:00.370Z,32.22
2018-08-04T18:29:12.636Z,32.14
2018-08-04T18:31:24.850Z,32.10
2018-08-04T18:33:37.097Z,32.03
2018-08-04T18:35:49.340Z,31.99
2018-08-04T18:38:01.567Z,32.00
2018-08-04T18:40:13.802Z,31.99
2018-08-04T18:42:26.037Z,31.88
2018-08-04T18:44:38.318Z,31.71
2018-08-04T18:46:50.496Z,31.61
2018-08-04T18:49:02.731Z,31.55
2018-08-04T18:51:14.951Z,31.32
2018-08-04T18:53:27.166Z,31.14
2018-08-04T18:55:39.403Z,30.93
2018-08-04T18:57:51.665Z,30.69
2018-08-04T19:00:04.577Z,30.53
2018-08-04T19:02:16.847Z,30.39
2018-08-04T19:04:29.083Z,30.24
2018-08-04T19:06:41.367Z,30.09
2018-08-04T19:08:53.641Z,30.00
2018-08-04T19:11:05.874Z,29.89
2018-08-04T19:13:18.102Z,29.83
2018-08-04T19:15:30.272Z,29.78
2018-08-04T19:17:42.550Z,29.74
2018-08-04T19:19:54.746Z,29.70
2018-08-04T19:22:07.054Z,29.61
2018-08-04T19:24:19.258Z,29.44
2018-08-04T19:26:31.505Z,29.44
2018-08-04T19:28:43.738Z,29.37
2018-08-04T19:30:55.937Z,29.26
2018-08-04T19:33:08.145Z,29.24
2018-08-04T19:35:20.406Z,29.21
2018-08-04T19:37:32.687Z,29.17
2018-08-04T19:39:44.919Z,29.08
2018-08-04T19:41:57.144Z,29.04
2018-08-04T19:44:09.474Z,28.99
2018-08-04T19:46:21.723Z,28.92
2018-08-04T19:48:34.245Z,28.79
2018-08-04T19:50:46.477Z,28.74
2018-08-04T19:52:58.687Z,28.71
2018-08-04T19:55:10.913Z,28.62
2018-08-04T19:57:23.171Z,28.49
2018-08-04T19:59:35.411Z,28.36
2018-08-04T20:01:47.657Z,28.25
2018-08-04T20:03:59.882Z,28.26
2018-08-04T20:06:12.075Z,28.27
2018-08-04T20:08:25.778Z,28.18
2018-08-04T20:10:37.973Z,28.12
2018-08-04T20:12:50.223Z,27.99
2018-08-04T20:15:02.513Z,27.98
2018-08-04T20:17:14.745Z,27.95
2018-08-04T20:19:27.018Z,27.91
2018-08-04T20:21:39.226Z,27.88
2018-08-04T20:23:51.402Z,27.87
2018-08-04T20:26:03.675Z,27.80
2018-08-04T20:28:15.891Z,27.75
2018-08-04T20:30:28.127Z,27.72
2018-08-04T20:32:40.368Z,27.60
2018-08-04T20:34:52.628Z,27.52
2018-08-04T20:37:04.884Z,27.48
2018-08-04T20:39:17.091Z,27.45
2018-08-04T20:41:29.302Z,27.44
2018-08-04T20:43:41.462Z,27.38
2018-08-04T20:45:53.695Z,27.29
2018-08-04T20:48:05.896Z,27.28
2018-08-04T20:50:18.174Z,27.30
2018-08-04T20:52:30.444Z,27.26
2018-08-04T20:54:42.660Z,27.15
2018-08-04T20:56:54.959Z,27.07
2018-08-04T20:59:07.174Z,27.01
2018-08-04T21:01:35.495Z,26.92
2018-08-04T21:03:47.734Z,26.85
2018-08-04T21:06:00.382Z,26.85
2018-08-04T21:08:12.615Z,26.85
2018-08-04T21:10:24.859Z,26.79
2018-08-04T21:12:37.102Z,26.74
2018-08-04T21:14:49.835Z,26.72
2018-08-04T21:17:02.062Z,26.73
2018-08-04T21:19:14.564Z,26.74
2018-08-04T21:21:26.747Z,26.73
2018-08-04T21:23:39.002Z,26.73
2018-08-04T21:25:51.203Z,26.60
2018-08-04T21:28:03.453Z,26.60
2018-08-04T21:30:15.684Z,26.57
2018-08-04T21:32:27.856Z,26.53
2018-08-04T21:34:40.171Z,26.49
2018-08-04T21:36:52.393Z,26.42
2018-08-04T21:39:07.243Z,26.42
2018-08-04T21:41:19.454Z,26.35
2018-08-04T21:43:31.679Z,26.32
2018-08-04T21:45:43.985Z,26.36
2018-08-04T21:47:56.183Z,26.34
2018-08-04T21:50:08.561Z,26.32
2018-08-04T21:52:20.807Z,26.33
2018-08-04T21:54:32.946Z,26.36
2018-08-04T21:56:45.561Z,26.29
2018-08-04T21:58:57.750Z,26.29
2018-08-04T22:01:12.834Z,26.25
2018-08-04T22:03:25.074Z,26.24
2018-08-04T22:05:37.275Z,26.25
2018-08-04T22:08:01.125Z,26.24
2018-08-04T22:10:13.883Z,26.18
2018-08-04T22:12:26.166Z,26.10
2018-08-04T22:14:38.334Z,26.02
2018-08-04T22:16:50.579Z,25.97
2018-08-04T22:19:02.936Z,25.85
2018-08-04T22:21:15.303Z,25.78
2018-08-04T22:23:27.625Z,25.78
2018-08-04T22:25:39.848Z,25.71
2018-08-04T22:27:52.316Z,25.67
2018-08-04T22:30:05.909Z,25.61
2018-08-04T22:32:18.148Z,25.53
2018-08-04T22:34:30.358Z,25.56
2018-08-04T22:36:42.626Z,25.51
2018-08-04T22:38:54.795Z,25.43
2018-08-04T22:41:06.975Z,25.39
2018-08-04T22:43:19.207Z,25.31
2018-08-04T22:46:00.305Z,25.26
2018-08-04T22:48:12.631Z,25.22
2018-08-04T22:50:24.979Z,25.23
2018-08-04T22:52:37.534Z,25.38
2018-08-04T22:54:49.775Z,25.26
2018-08-04T22:57:07.341Z,25.22
2018-08-04T22:59:19.526Z,25.07
2018-08-04T23:01:31.738Z,25.01
2018-08-04T23:05:56.279Z,24.94
2018-08-04T23:08:09.305Z,24.91
2018-08-04T23:10:21.530Z,24.87
2018-08-04T23:12:33.732Z,24.77
2018-08-04T23:14:45.995Z,24.79
2018-08-04T23:16:58.183Z,24.71
2018-08-04T23:19:10.402Z,24.69
2018-08-04T23:21:22.623Z,24.66
2018-08-04T23:23:34.850Z,24.61
2018-08-04T23:25:47.086Z,24.52
2018-08-04T23:27:59.275Z,24.56
2018-08-04T23:30:11.531Z,24.57
2018-08-04T23:32:23.727Z,24.59
2018-08-04T23:34:35.935Z,24.59
2018-08-04T23:36:48.785Z,24.61
2018-08-04T23:39:00.987Z,24.57
2018-08-04T23:41:13.508Z,24.58
2018-08-04T23:43:25.717Z,24.57
2018-08-04T23:45:37.899Z,24.54
2018-08-04T23:47:50.129Z,24.55
2018-08-04T23:50:02.670Z,24.53
2018-08-04T23:52:15.190Z,24.50
2018-08-04T23:54:27.435Z,24.52
2018-08-04T23:56:39.717Z,24.47
2018-08-04T23:58:51.906Z,24.46
